• Join FlightAware (Why Join?)
  • Login
  • US Flag 
12:32AM EDT


 

Airport Tracker/Info


-or-


 

Live Flight TrackerFlight Track Log ✈ FIV521 ✈ 17-Apr-2013 ✈ KHEZ - KFMY

Flight Track Log - Related Links

Times and Time Zones

All times are in EDT time to prevent confusion due to time zone crossing. See the FIV521 flight status page for this flight to view local times or setup timezone preferences in your user account.

Time Position Orientation Groundspeed Altitude Reporting Facility
EDT Latitude Longitude Course Direction KTS MPH feet Rate Location/Type
04:43PM 31.5647 -91.1472 104° East 236 272 8,500  Level Houston Center
04:44PM 31.5369 -91.0483 108° East 277 319 9,000 960 Climbing Houston Center
04:45PM 31.3067 -90.6528 105° East  Level Estimated
04:45PM 31.5194 -90.9581 103° East 285 328 10,500  Level Houston Center
04:46PM 31.3305 -90.5332 77° East  Level FlightAware Approximate
04:46PM 31.4992 -90.8667 105° East 290 334 13,200  Level Houston Center
04:47PM 31.3543 -90.4135 77° East  Level FlightAware Approximate
04:47PM 31.4789 -90.7706 104° East 305 351 15,200  Level Houston Center
04:48PM 31.3012 -90.3075 99° East  Level Estimated
04:48PM 31.4556 -90.6664 105° East 327 376 17,100  Level Houston Center
04:49PM 31.4283 -90.5308 103° East 355 409 19,400 2,040 Climbing Houston Center
04:50PM 31.4031 -90.4117 104° East 375 432 21,400 1,860 Climbing Houston Center
04:52PM 31.3758 -90.2911 105° East 383 441 23,300 1,860 Climbing Houston Center
04:53PM 31.3497 -90.1664 104° East 393 452 25,300 1,860 Climbing Houston Center
04:54PM 31.3231 -90.0417 104° East 396 456 27,200 1,860 Climbing Houston Center
04:55PM 31.2950 -89.9156 105° East 399 459 29,200 2,040 Climbing Houston Center
04:56PM 31.2622 -89.7639 104° East 400 460 31,500 1,980 Climbing Houston Center
04:57PM 31.2347 -89.6389 104° East 398 458 33,300 1,500 Climbing Houston Center
04:58PM 31.2069 -89.5106 104° East 405 466 34,700 1,380 Climbing Houston Center
04:59PM 31.1778 -89.3808 105° East 411 473 36,200 1,380 Climbing Houston Center
05:00PM 31.1492 -89.2511 104° East 412 474 37,600 1,260 Climbing Houston Center
05:01PM 31.1186 -89.1211 105° East 414 476 38,900 1,140 Climbing Houston Center
05:02PM 31.0903 -88.9908 104° East 414 476 40,000 960 Climbing Houston Center
05:03PM 31.0569 -88.8481 105° East 411 473 41,000 480 Climbing Houston Center
05:04PM 31.0258 -88.7150 105° East 427 491 41,000  Level Houston Center
05:05PM 30.9908 -88.5614 105° East 447 514 41,000  Level Houston Center
05:06PM 30.9575 -88.4175 105° East 459 528 41,000  Level Houston Center
05:07PM 30.9236 -88.2736 105° East 462 532 41,000  Level Houston Center
05:08PM 30.8894 -88.1275 105° East 468 539 41,000  Level Houston Center
05:09PM 30.8503 -87.9553 105° East 460 529 41,000  Level Houston Center
05:10PM 30.8292 -87.8661 105° East 479 551 41,000  Level Jacksonville Center
05:11PM 30.7947 -87.7242 106° East 463 533 41,000  Level Jacksonville Center
05:12PM 30.7606 -87.5822 106° East 458 527 41,000  Level Jacksonville Center
05:13PM 30.7283 -87.4356 104° East 458 527 41,000  Level Jacksonville Center
05:14PM 30.6936 -87.2914 106° East 464 534 41,000  Level Jacksonville Center
05:15PM 30.6589 -87.1475 106° East 464 534 41,000  Level Jacksonville Center
05:16PM 30.6239 -87.0058 106° East 459 528 41,000  Level Jacksonville Center
05:17PM 30.5850 -86.8497 106° East 459 528 41,000  Level Jacksonville Center
05:18PM 30.5497 -86.7083 106° East 459 528 41,000  Level Jacksonville Center
05:19PM 30.5161 -86.5672 105° East 454 522 41,000  Level Jacksonville Center
05:20PM 30.4806 -86.4286 107° East 454 522 41,000  Level Jacksonville Center
05:21PM 30.4447 -86.2875 106° East 454 522 41,000  Level Jacksonville Center
05:22PM 30.4086 -86.1464 106° East 449 517 41,000  Level Jacksonville Center
05:23PM 30.3747 -86.0056 106° East 449 517 41,000  Level Jacksonville Center
05:24PM 30.3403 -85.8675 106° East 449 517 41,000  Level Jacksonville Center
05:25PM 30.3039 -85.7267 107° East 449 517 41,000  Level Jacksonville Center
05:26PM 30.2714 -85.5839 105° East 449 517 41,000  Level Jacksonville Center
05:27PM 30.2283 -85.4481 110° East 449 517 41,000  Level Jacksonville Center
05:28PM 30.1997 -85.3175 104° East 456 525 41,000  Level Jacksonville Center
05:29PM 30.1606 -85.1747 108° East 461 531 41,000  Level Jacksonville Center
05:30PM 30.1253 -85.0322 106° East 461 531 41,000  Level Jacksonville Center
05:31PM 30.0900 -84.8947 106° East 461 531 41,000  Level Jacksonville Center
05:32PM 30.0547 -84.7525 106° East 461 531 41,000  Level Jacksonville Center
05:33PM 30.0106 -84.6125 110° East 461 531 41,000  Level Jacksonville Center
05:34PM 29.9750 -84.4703 106° East 461 531 41,000  Level Jacksonville Center
05:35PM 29.9369 -84.3306 107° East 461 531 41,000  Level Jacksonville Center
05:36PM 29.9028 -84.1911 106° East 461 531 41,000  Level Jacksonville Center
05:37PM 29.8644 -84.0542 108° East 461 531 41,000  Level Jacksonville Center
05:38PM 29.8156 -83.9194 113° Southeast 456 525 41,000  Level Jacksonville Center
05:39PM 29.7181 -83.8325 142° Southeast 429 494 41,000  Level Jacksonville Center
05:40PM 29.6100 -83.7622 151° Southeast 429 494 41,000  Level Jacksonville Center
05:41PM 29.5042 -83.6919 150° Southeast 435 501 41,000  Level Jacksonville Center
05:42PM 29.3958 -83.6267 152° Southeast 440 506 41,000  Level Jacksonville Center
05:43PM 29.2878 -83.5544 150° Southeast 445 512 41,000  Level Jacksonville Center
05:44PM 29.1794 -83.4847 151° Southeast 450 518 41,000  Level Jacksonville Center
05:45PM 29.0714 -83.4200 152° Southeast 450 518 41,000  Level Jacksonville Center
05:46PM 28.9586 -83.3767 161° South 438 504 41,000 -180 Level Jacksonville Center
05:47PM 28.8483 -83.3311 160° South 432 497 40,700 -1,140 Descending Jacksonville Center
05:48PM 28.7336 -83.2833 160° South 427 491 38,800 -1,980 Descending Jacksonville Center
05:49PM 28.6211 -83.2378 160° South 427 491 36,800 -2,100 Descending Jacksonville Center
05:50PM 28.5106 -83.1972 162° South 427 491 34,700 -2,100 Descending Jacksonville Center
05:52PM 28.3019 -83.1133 161° South 437 503 31,000 -2,040 Descending Miami Center
05:53PM 28.1894 -83.0647 159° South 437 503 29,000 -1,980 Descending Miami Center
05:54PM 28.0725 -83.0183 161° South 437 503 27,100 -1,020 Descending Miami Center
05:55PM 27.9581 -82.9675 159° South 437 503 27,000 -60 Descending Miami Center
05:56PM 27.8514 -82.9194 158° South 437 503 27,000  Level Miami Center
05:57PM 27.7408 -82.8692 158° South 434 499 27,000 -180 Level Miami Center
05:58PM 27.6181 -82.8136 158° South 429 494 26,700 -1,200 Descending Miami Center
05:59PM 27.5056 -82.7633 158° South 429 494 24,600 -2,040 Descending Miami Center
06:00PM 27.4069 -82.7208 159° South 434 499 22,700 -1,920 Descending Miami Center
06:01PM 27.2964 -82.6708 158° South 423 487 20,800 -2,100 Descending Miami Center
06:02PM 27.1908 -82.5953 148° Southeast 423 487 18,600 -2,040 Descending Miami Center
06:03PM 27.1019 -82.5258 145° Southeast 409 471 16,800 -1,800 Descending Miami Center
06:04PM 27.0086 -82.4558 146° Southeast 404 465 15,000 -1,740 Descending Miami Center
06:05PM 26.9275 -82.3892 144° Southeast 390 449 13,400 -1,380 Descending Miami Center
06:07PM 26.7836 -82.2756 145° Southeast 328 377 11,000 -1,140 Descending Miami Center
06:08PM 26.7189 -82.2214 143° Southeast 302 348 10,000 -1,500 Descending Miami Center
06:09PM 26.6542 -82.1694 144° Southeast 290 334 8,100 -2,100 Descending Miami Center
06:10PM 26.5933 -82.1158 142° Southeast 283 326 5,800 -2,460 Descending Miami Center
06:11PM 26.5347 -82.0667 143° Southeast 278 320 3,200 -1,800 Descending Miami Center
06:12PM 26.4819 -82.0250 145° Southeast 272 313 2,200 8,880 Descending Miami Center
06:13PM 26.4208 -81.9758 144° Southeast 272 313 21,000 9,360 Climbing Miami Center
06:14PM 26.3600 -81.9269 144° Southeast 272 313 21,000  Level Miami Center
06:16PM 26.5543 -81.8724 20° North  Level Estimated
06:23PM 26.5833 -81.8500 20° North  Level FlightAware Approximate
06:24PM 26.5866 -81.8633 20° North  Level Estimated